Time;durP1;ratioP1;P1;durP2;ratioP2;P2;SDS_P1;SDS_P2;PMS_P1;PMS_P2;Temp;Humidity;BMP_temperature;BMP_pressure;BME280_temperature;BME280_humidity;BME280_pressure;Samples;Min_cycle;Max_cycle;Signal;HPM_P1;HPM_P2
2022/10/13 00:01:22;;;;;;;17.70;12.73;;;;;;;7.41;100.00;93848.22;5071361;28;20492;-71
2022/10/13 00:03:49;;;;;;;17.05;12.73;;;;;;;7.37;100.00;93852.09;5071313;28;20532;-71
2022/10/13 00:06:18;;;;;;;17.52;12.52;;;;;;;7.31;100.00;93841.59;5071259;28;20461;-71
2022/10/13 00:08:46;;;;;;;18.58;13.07;;;;;;;7.38;100.00;93844.25;5071270;28;20135;-71
2022/10/13 00:11:16;;;;;;;19.33;14.30;;;;;;;7.37;100.00;93842.69;5071154;28;20114;-71
2022/10/13 00:13:43;;;;;;;17.17;12.57;;;;;;;7.29;100.00;93832.50;5071060;28;20048;-71
2022/10/13 00:16:13;;;;;;;19.90;14.68;;;;;;;7.38;100.00;93846.00;5070962;28;20098;-71
2022/10/13 00:18:40;;;;;;;18.60;14.00;;;;;;;7.41;100.00;93840.56;5071242;28;20056;-71
2022/10/13 00:21:09;;;;;;;18.35;12.90;;;;;;;7.37;100.00;93836.75;5071121;28;20105;-70
2022/10/13 00:23:36;;;;;;;17.75;13.32;;;;;;;7.25;100.00;93816.72;5071043;28;20500;-71
2022/10/13 00:26:04;;;;;;;22.70;15.13;;;;;;;7.32;100.00;93829.63;5071228;28;20454;-70
2022/10/13 00:28:33;;;;;;;20.60;14.35;;;;;;;7.36;100.00;93825.72;5070350;28;20538;-71
2022/10/13 00:30:59;;;;;;;18.77;13.82;;;;;;;7.33;100.00;93816.66;5070566;28;20106;-71
2022/10/13 00:33:26;;;;;;;21.25;14.88;;;;;;;7.25;100.00;93810.81;5071187;28;20098;-71
2022/10/13 00:35:53;;;;;;;20.35;14.75;;;;;;;7.32;100.00;93816.84;5070373;28;20099;-71
2022/10/13 00:38:22;;;;;;;19.58;14.43;;;;;;;7.32;100.00;93811.72;5070401;28;20044;-71
2022/10/13 00:40:51;;;;;;;23.73;15.05;;;;;;;7.37;100.00;93814.56;5070593;28;20125;-71
2022/10/13 00:43:19;;;;;;;22.60;14.98;;;;;;;7.35;100.00;93814.72;5070281;28;20398;-71
2022/10/13 00:45:49;;;;;;;20.77;15.13;;;;;;;7.30;100.00;93811.09;5070225;28;20528;-70
2022/10/13 00:48:18;;;;;;;19.00;12.88;;;;;;;7.31;100.00;93813.47;5070424;28;20447;-71
2022/10/13 00:50:46;;;;;;;21.15;15.05;;;;;;;7.38;100.00;93818.69;5068222;28;20086;-71
2022/10/13 00:53:14;;;;;;;19.60;13.15;;;;;;;7.37;100.00;93809.44;5070346;28;20048;-71
2022/10/13 00:55:44;;;;;;;17.52;12.55;;;;;;;7.40;100.00;93808.31;5070313;28;20102;-71
2022/10/13 00:58:14;;;;;;;18.75;12.55;;;;;;;7.35;100.00;93813.94;5070245;28;20060;-70
2022/10/13 01:00:44;;;;;;;15.85;11.60;;;;;;;7.29;100.00;93806.97;5070070;28;20142;-70
2022/10/13 01:03:13;;;;;;;18.67;12.23;;;;;;;7.18;100.00;93796.19;5069806;28;20098;-70
2022/10/13 01:05:41;;;;;;;18.52;12.40;;;;;;;7.15;100.00;93806.78;5070127;28;20102;-70
2022/10/13 01:08:10;;;;;;;16.42;12.10;;;;;;;7.18;100.00;93808.97;5070065;28;20044;-70
2022/10/13 01:10:50;;;;;;;15.98;12.05;;;;;;;7.18;100.00;93803.84;5069923;28;20049;-70
2022/10/13 01:13:23;;;;;;;16.63;11.82;;;;;;;7.19;100.00;93802.88;5069920;28;20094;-70
2022/10/13 01:15:57;;;;;;;16.65;11.75;;;;;;;7.22;100.00;93801.75;5049406;28;20041;-70
2022/10/13 01:18:34;;;;;;;16.65;11.60;;;;;;;7.24;100.00;93802.38;5066796;28;20413;-70
2022/10/13 01:21:18;;;;;;;15.63;11.52;;;;;;;7.21;100.00;93807.81;5069110;28;20098;-70
2022/10/13 01:24:26;;;;;;;15.93;11.38;;;;;;;7.07;100.00;93802.53;5068780;28;20044;-70
2022/10/13 01:27:14;;;;;;;18.20;12.07;;;;;;;7.07;100.00;93796.59;5061533;28;20040;-70
2022/10/13 01:30:08;;;;;;;17.67;12.52;;;;;;;7.04;100.00;93812.28;5069209;28;20567;-70
2022/10/13 01:32:48;;;;;;;16.17;11.77;;;;;;;7.06;100.00;93811.16;5069085;28;20040;-70
2022/10/13 01:35:22;;;;;;;16.38;11.50;;;;;;;7.06;100.00;93806.06;5069038;28;20545;-70
2022/10/13 01:37:55;;;;;;;15.27;11.65;;;;;;;7.09;100.00;93805.69;5069120;28;20488;-70
2022/10/13 01:40:26;;;;;;;15.70;11.38;;;;;;;7.08;100.00;93808.41;5068150;28;20546;-71
2022/10/13 01:42:59;;;;;;;22.23;13.60;;;;;;;7.02;100.00;93809.91;5068958;28;20094;-71
2022/10/13 01:45:32;;;;;;;21.67;15.32;;;;;;;6.91;100.00;93797.53;5068915;28;20048;-71
2022/10/13 01:48:02;;;;;;;24.48;15.98;;;;;;;7.01;100.00;93815.19;5068884;28;20048;-71
2022/10/13 01:50:29;;;;;;;21.40;14.20;;;;;;;7.02;100.00;93804.78;5069192;28;20127;-71
2022/10/13 01:53:00;;;;;;;22.92;16.70;;;;;;;7.07;100.00;93810.19;5069203;28;20040;-71
2022/10/13 01:55:27;;;;;;;21.45;14.13;;;;;;;7.08;100.00;93809.22;5068838;28;20090;-71
2022/10/13 01:57:54;;;;;;;19.13;12.50;;;;;;;7.00;100.00;93798.28;5068922;28;20132;-71
2022/10/13 02:00:22;;;;;;;18.77;13.35;;;;;;;6.90;100.00;93785.75;5068620;28;20056;-71
2022/10/13 02:03:03;;;;;;;20.23;13.90;;;;;;;6.98;100.00;93795.09;5069067;28;20040;-71
2022/10/13 02:05:42;;;;;;;23.13;17.70;;;;;;;6.94;100.00;93795.44;5068746;28;20040;-71
2022/10/13 02:08:17;;;;;;;22.15;16.67;;;;;;;6.95;100.00;93789.34;5068981;28;20393;-71
2022/10/13 02:10:50;;;;;;;23.50;16.08;;;;;;;7.00;100.00;93785.50;5068732;28;20488;-71
2022/10/13 02:13:21;;;;;;;24.58;17.90;;;;;;;6.99;100.00;93786.47;5068888;28;20053;-71
2022/10/13 02:15:52;;;;;;;23.05;18.08;;;;;;;6.94;100.00;93776.75;5068979;28;20154;-71
2022/10/13 02:18:26;;;;;;;21.77;17.25;;;;;;;7.04;100.00;93784.19;5068788;28;20109;-71
2022/10/13 02:20:54;;;;;;;22.08;16.15;;;;;;;7.09;100.00;93787.03;5068299;28;20114;-71
2022/10/13 02:23:22;;;;;;;19.70;14.18;;;;;;;7.08;100.00;93780.31;5068731;28;20037;-71
2022/10/13 02:25:49;;;;;;;18.55;13.32;;;;;;;7.09;100.00;93780.13;5068528;28;20546;-71
2022/10/13 02:28:17;;;;;;;17.83;12.55;;;;;;;6.97;100.00;93778.97;5068861;28;20055;-71
2022/10/13 02:30:45;;;;;;;17.17;13.27;;;;;;;6.93;100.00;93778.53;5068504;28;20028;-71
2022/10/13 02:33:13;;;;;;;17.83;12.32;;;;;;;6.81;100.00;93773.03;5068576;28;20454;-71
2022/10/13 02:35:41;;;;;;;19.65;14.30;;;;;;;6.80;100.00;93768.91;5068273;28;20553;-71
2022/10/13 02:38:08;;;;;;;19.23;13.60;;;;;;;6.89;100.00;93769.63;5068661;28;20106;-71
2022/10/13 02:40:35;;;;;;;20.63;13.57;;;;;;;6.82;100.00;93761.06;5068367;28;20045;-71
2022/10/13 02:43:02;;;;;;;20.48;14.23;;;;;;;6.81;100.00;93767.16;5068576;28;20086;-70
2022/10/13 02:45:29;;;;;;;17.75;13.55;;;;;;;6.84;100.00;93763.47;5068235;28;20044;-70
2022/10/13 02:47:56;;;;;;;19.27;13.48;;;;;;;6.85;100.00;93762.50;5068795;28;20098;-70
2022/10/13 02:50:23;;;;;;;19.95;14.10;;;;;;;6.83;100.00;93767.75;5068582;28;20110;-70
2022/10/13 02:52:51;;;;;;;22.63;15.93;;;;;;;6.85;100.00;93760.72;5071844;28;20492;-70
2022/10/13 02:55:18;;;;;;;22.15;14.25;;;;;;;6.73;100.00;93745.03;5072516;28;20057;-70
2022/10/13 02:57:45;;;;;;;18.05;11.05;;;;;;;6.82;100.00;93754.19;5072700;28;20056;-70
2022/10/13 03:00:13;;;;;;;16.48;12.10;;;;;;;6.78;100.00;93767.47;5072596;28;20057;-70
2022/10/13 03:02:39;;;;;;;16.20;12.30;;;;;;;6.78;100.00;93765.72;5072617;28;20040;-71
2022/10/13 03:05:06;;;;;;;16.05;12.77;;;;;;;6.76;100.00;93759.22;5072407;28;20561;-71
2022/10/13 03:07:33;;;;;;;17.75;13.45;;;;;;;6.74;100.00;93766.22;5072031;28;20845;-70
2022/10/13 03:10:01;;;;;;;14.98;11.68;;;;;;;6.74;100.00;93758.56;5072357;28;20070;-71
2022/10/13 03:12:28;;;;;;;16.92;13.43;;;;;;;6.79;100.00;93759.66;5072408;28;20098;-71
2022/10/13 03:14:55;;;;;;;18.52;12.23;;;;;;;6.80;100.00;93766.34;5072192;28;20060;-71
2022/10/13 03:17:21;;;;;;;20.67;14.45;;;;;;;6.79;100.00;93758.84;5072517;28;20106;-71
2022/10/13 03:19:48;;;;;;;19.25;15.10;;;;;;;6.78;100.00;93767.47;5072004;28;20570;-71
2022/10/13 03:22:15;;;;;;;22.58;14.82;;;;;;;6.77;100.00;93769.22;5072085;28;20542;-71
2022/10/13 03:24:42;;;;;;;19.40;12.73;;;;;;;6.79;100.00;93769.88;5072270;28;20382;-73
2022/10/13 03:27:10;;;;;;;17.08;12.82;;;;;;;6.80;100.00;93773.19;5071986;28;20059;-72
2022/10/13 03:29:37;;;;;;;19.95;13.57;;;;;;;6.76;100.00;93769.41;5072147;28;20135;-71
2022/10/13 03:32:04;;;;;;;19.95;13.40;;;;;;;6.73;100.00;93768.00;5072303;28;20053;-70
2022/10/13 03:34:31;;;;;;;18.23;12.48;;;;;;;6.74;100.00;93769.59;5071626;28;20556;-71
2022/10/13 03:36:58;;;;;;;22.15;13.30;;;;;;;6.72;100.00;93768.97;5071905;28;20162;-71
2022/10/13 03:39:25;;;;;;;20.02;14.15;;;;;;;6.67;100.00;93774.56;5071734;28;20044;-71
2022/10/13 03:41:52;;;;;;;20.48;14.60;;;;;;;6.53;100.00;93767.69;5071474;28;20048;-71
2022/10/13 03:44:20;;;;;;;21.20;15.23;;;;;;;6.56;100.00;93767.31;5071981;28;20052;-71
2022/10/13 03:46:47;;;;;;;19.33;14.27;;;;;;;6.59;100.00;93761.88;5071865;28;20090;-71
2022/10/13 03:49:13;;;;;;;20.33;15.15;;;;;;;6.53;100.00;93760.03;5071746;28;20041;-71
2022/10/13 03:51:40;;;;;;;19.48;14.68;;;;;;;6.58;100.00;93773.06;5071437;28;20492;-71
2022/10/13 03:54:07;;;;;;;20.88;15.18;;;;;;;6.59;100.00;93763.63;5071500;28;20053;-70
2022/10/13 03:56:34;;;;;;;19.73;14.55;;;;;;;6.59;100.00;93767.00;5071535;28;20037;-71
2022/10/13 03:59:03;;;;;;;18.58;13.40;;;;;;;6.61;100.00;93766.84;5071468;28;20056;-71
2022/10/13 04:01:33;;;;;;;21.75;13.75;;;;;;;6.64;100.00;93764.72;5071486;28;21187;-71
2022/10/13 04:04:02;;;;;;;18.67;14.45;;;;;;;6.64;100.00;93756.25;5070371;28;20044;-71
2022/10/13 04:06:29;;;;;;;20.63;14.75;;;;;;;6.72;100.00;93765.63;5071486;28;20147;-71
2022/10/13 04:08:56;;;;;;;17.90;12.13;;;;;;;6.72;100.00;93755.41;5071072;28;20106;-72
2022/10/13 04:11:24;;;;;;;17.92;13.55;;;;;;;6.71;100.00;93758.94;5071194;28;20538;-72
2022/10/13 04:13:51;;;;;;;19.17;13.82;;;;;;;6.74;100.00;93758.56;5071445;28;20805;-72
2022/10/13 04:16:19;;;;;;;22.88;16.58;;;;;;;6.71;100.00;93762.25;5071543;28;20044;-71
2022/10/13 04:18:51;;;;;;;20.58;14.98;;;;;;;6.67;100.00;93766.13;5070923;28;20040;-71
2022/10/13 04:21:18;;;;;;;16.15;12.43;;;;;;;6.65;100.00;93762.94;5070945;28;20527;-71
2022/10/13 04:23:45;;;;;;;17.25;12.27;;;;;;;6.62;100.00;93758.97;5071230;28;20098;-71
2022/10/13 04:26:15;;;;;;;15.85;12.18;;;;;;;6.62;100.00;93764.09;5070684;28;20321;-71
2022/10/13 04:28:42;;;;;;;16.65;11.73;;;;;;;6.60;100.00;93768.56;5067825;28;20050;-71
2022/10/13 04:31:09;;;;;;;16.92;12.75;;;;;;;6.59;100.00;93767.00;5069047;28;20044;-71
2022/10/13 04:33:36;;;;;;;19.98;14.07;;;;;;;6.53;100.00;93758.25;5070047;28;20108;-70
2022/10/13 04:36:05;;;;;;;19.50;14.07;;;;;;;6.55;100.00;93761.44;5070811;28;20110;-71
2022/10/13 04:38:32;;;;;;;21.00;13.07;;;;;;;6.61;100.00;93752.28;5070639;28;20098;-71
2022/10/13 04:41:01;;;;;;;18.90;13.85;;;;;;;6.62;100.00;93756.44;5070801;28;20118;-71
2022/10/13 04:43:28;;;;;;;20.58;14.93;;;;;;;6.61;100.00;93756.63;5070350;28;20398;-71
2022/10/13 04:46:00;;;;;;;21.13;13.90;;;;;;;6.73;100.00;93757.78;5070417;28;20048;-71
2022/10/13 04:48:27;;;;;;;18.38;14.23;;;;;;;6.74;100.00;93746.63;5070639;28;20124;-71
2022/10/13 04:50:59;;;;;;;19.88;14.88;;;;;;;6.83;100.00;93760.09;5070507;28;20063;-71
2022/10/13 04:53:28;;;;;;;18.95;13.23;;;;;;;6.88;100.00;93762.13;5070310;28;20519;-71
2022/10/13 04:55:55;;;;;;;17.70;12.90;;;;;;;6.92;100.00;93761.63;5070293;28;20123;-71
2022/10/13 04:58:22;;;;;;;19.33;12.50;;;;;;;7.01;100.00;93771.75;5070545;28;20044;-71
2022/10/13 05:00:49;;;;;;;15.50;11.43;;;;;;;7.06;100.00;93762.63;5069937;28;20052;-71
2022/10/13 05:03:16;;;;;;;20.30;12.48;;;;;;;7.10;100.00;93768.16;5070508;28;20078;-71
2022/10/13 05:05:43;;;;;;;16.73;11.30;;;;;;;7.16;100.00;93766.66;5070107;28;20405;-71
2022/10/13 05:08:10;;;;;;;15.18;10.80;;;;;;;7.17;100.00;93763.16;5070168;28;20040;-71
2022/10/13 05:10:38;;;;;;;15.52;10.75;;;;;;;7.24;100.00;93769.16;5070370;28;20044;-71
2022/10/13 05:13:05;;;;;;;15.35;10.82;;;;;;;7.21;100.00;93765.19;5070038;28;20053;-71
2022/10/13 05:15:31;;;;;;;16.80;12.15;;;;;;;7.31;100.00;93774.38;5070060;28;20053;-71
2022/10/13 05:17:58;;;;;;;19.08;13.63;;;;;;;7.35;100.00;93780.69;5070161;28;20041;-71
2022/10/13 05:20:26;;;;;;;19.55;14.13;;;;;;;7.34;100.00;93779.94;5070303;28;20101;-71
2022/10/13 05:22:53;;;;;;;23.08;15.43;;;;;;;7.34;100.00;93784.22;5055733;28;20554;-71
2022/10/13 05:25:19;;;;;;;21.45;15.48;;;;;;;7.41;100.00;93786.88;5069764;28;20562;-71
2022/10/13 05:27:47;;;;;;;22.80;16.02;;;;;;;7.45;100.00;93786.34;5069650;28;20091;-71
2022/10/13 05:30:14;;;;;;;19.83;14.52;;;;;;;7.48;100.00;93785.22;5069513;28;20109;-71
2022/10/13 05:32:41;;;;;;;20.92;15.70;;;;;;;7.45;100.00;93788.91;5070027;28;20455;-71
2022/10/13 05:35:09;;;;;;;23.98;15.38;;;;;;;7.47;100.00;93792.09;5069615;28;20044;-71
2022/10/13 05:37:36;;;;;;;24.85;17.73;;;;;;;7.38;100.00;93782.91;5069570;28;20049;-71
2022/10/13 05:40:02;;;;;;;23.45;15.40;;;;;;;7.45;100.00;93800.91;5069842;28;20048;-71
2022/10/13 05:42:29;;;;;;;23.52;17.70;;;;;;;7.47;100.00;93806.63;5069649;28;20049;-71
2022/10/13 05:44:58;;;;;;;24.30;17.48;;;;;;;7.58;100.00;93805.38;5069471;28;20040;-71
2022/10/13 05:47:27;;;;;;;22.20;16.05;;;;;;;7.59;100.00;93792.44;5069722;28;20094;-71
2022/10/13 05:49:54;;;;;;;24.05;16.52;;;;;;;7.73;100.00;93815.66;5069403;28;20045;-71
2022/10/13 05:52:23;;;;;;;24.58;15.80;;;;;;;7.80;100.00;93805.47;5069305;28;20526;-71
2022/10/13 05:54:53;;;;;;;21.33;16.40;;;;;;;7.82;100.00;93814.56;5069488;28;20048;-71
2022/10/13 05:57:24;;;;;;;22.73;16.38;;;;;;;7.83;100.00;93810.25;5069558;28;20094;-71
2022/10/13 05:59:53;;;;;;;24.98;17.20;;;;;;;7.84;100.00;93815.19;5068997;28;20049;-71
2022/10/13 06:02:24;;;;;;;21.40;15.00;;;;;;;7.79;100.00;93802.16;5069343;28;20048;-71
2022/10/13 06:04:54;;;;;;;22.33;15.45;;;;;;;7.47;100.00;93781.88;5068952;28;20530;-71
2022/10/13 06:07:21;;;;;;;21.00;14.15;;;;;;;7.57;100.00;93802.06;5069482;28;20114;-71
2022/10/13 06:09:48;;;;;;;23.00;15.25;;;;;;;7.70;100.00;93800.63;5068963;28;20492;-71
2022/10/13 06:12:15;;;;;;;21.65;15.32;;;;;;;7.86;100.00;93785.09;5068873;28;20550;-71
2022/10/13 06:14:42;;;;;;;21.40;15.07;;;;;;;8.00;100.00;93785.25;5069339;28;20045;-71
2022/10/13 06:17:08;;;;;;;24.33;16.45;;;;;;;8.23;100.00;93792.00;5069049;28;20049;-71
2022/10/13 06:19:37;;;;;;;22.58;16.42;;;;;;;8.37;100.00;93790.38;5069062;28;20048;-71
2022/10/13 06:22:03;;;;;;;28.60;19.15;;;;;;;8.48;100.00;93784.78;5069034;28;20052;-71
2022/10/13 06:24:30;;;;;;;27.00;17.33;;;;;;;8.69;100.00;93801.16;5069261;28;20090;-71
2022/10/13 06:26:57;;;;;;;27.23;18.98;;;;;;;8.79;100.00;93801.66;5068437;28;20052;-71
2022/10/13 06:29:24;;;;;;;26.50;18.02;;;;;;;8.94;100.00;93804.13;5068759;28;20086;-71
2022/10/13 06:31:50;;;;;;;27.55;18.20;;;;;;;9.11;100.00;93803.09;5069129;28;20470;-71
2022/10/13 06:34:17;;;;;;;27.02;21.08;;;;;;;9.24;100.00;93795.50;5068801;28;20045;-71
2022/10/13 06:36:46;;;;;;;27.15;19.02;;;;;;;9.37;100.00;93797.38;5069058;28;20048;-71
2022/10/13 06:39:13;;;;;;;25.38;17.33;;;;;;;9.49;100.00;93800.19;5069132;28;20048;-71
2022/10/13 06:41:40;;;;;;;23.80;16.25;;;;;;;9.59;100.00;93803.22;5068976;28;20048;-71
2022/10/13 06:44:06;;;;;;;23.15;16.52;;;;;;;9.71;100.00;93800.13;5069060;28;20048;-71
2022/10/13 06:46:33;;;;;;;20.23;15.20;;;;;;;9.81;100.00;93799.78;5064239;28;20448;-71
2022/10/13 06:49:00;;;;;;;25.08;16.60;;;;;;;9.88;100.00;93798.03;5066935;28;20044;-71
2022/10/13 06:51:26;;;;;;;25.90;16.98;;;;;;;9.98;100.00;93801.06;5067980;28;20554;-71
2022/10/13 06:53:55;;;;;;;27.35;19.58;;;;;;;10.07;100.00;93806.81;5068504;28;20435;-71
2022/10/13 06:56:22;;;;;;;26.08;18.33;;;;;;;10.11;100.00;93802.09;5068466;28;20492;-71
2022/10/13 06:58:49;;;;;;;22.90;17.15;;;;;;;10.22;100.00;93811.81;5068546;28;20500;-71
2022/10/13 07:01:16;;;;;;;22.50;16.45;;;;;;;10.29;100.00;93801.56;5068099;28;20064;-71
2022/10/13 07:03:43;;;;;;;24.73;17.70;;;;;;;10.20;100.00;93802.72;5068762;28;20049;-71
2022/10/13 07:06:10;;;;;;;26.85;17.30;;;;;;;10.08;100.00;93793.00;5068666;28;20044;-71
2022/10/13 07:08:37;;;;;;;26.73;17.67;;;;;;;10.08;100.00;93782.72;5068768;28;20144;-71
2022/10/13 07:11:11;;;;;;;23.90;17.08;;;;;;;10.26;100.00;93794.22;5068317;28;20052;-71
2022/10/13 07:13:38;;;;;;;26.88;17.75;;;;;;;10.38;100.00;93792.69;5068391;28;20130;-71
2022/10/13 07:16:06;;;;;;;29.27;20.20;;;;;;;10.46;100.00;93794.31;5068571;28;20416;-71
2022/10/13 07:18:33;;;;;;;33.55;19.90;;;;;;;10.48;100.00;93778.72;5068197;28;20098;-71
2022/10/13 07:21:00;;;;;;;33.40;20.33;;;;;;;10.62;100.00;93800.88;5068506;28;20052;-71
2022/10/13 07:23:27;;;;;;;34.08;20.17;;;;;;;10.64;100.00;93809.19;5068516;28;20094;-71
2022/10/13 07:25:55;;;;;;;36.40;20.50;;;;;;;10.61;100.00;93807.03;5068027;28;20086;-71
2022/10/13 07:28:24;;;;;;;41.80;22.30;;;;;;;10.55;100.00;93807.78;5068583;28;20094;-71
2022/10/13 07:30:51;;;;;;;36.40;20.05;;;;;;;10.68;100.00;93812.94;5068363;28;20667;-71
2022/10/13 07:33:18;;;;;;;26.45;16.27;;;;;;;10.60;100.00;93810.56;5068515;28;20052;-71
2022/10/13 07:35:45;;;;;;;26.00;15.65;;;;;;;10.72;100.00;93807.41;5068420;28;20053;-71
2022/10/13 07:38:12;;;;;;;23.33;15.38;;;;;;;10.60;100.00;93805.41;5069081;28;20044;-71
2022/10/13 07:40:38;;;;;;;26.13;15.23;;;;;;;10.76;100.00;93803.47;5071974;28;20052;-71
2022/10/13 07:43:05;;;;;;;22.95;14.35;;;;;;;10.80;100.00;93809.81;5071732;28;20056;-71
2022/10/13 07:45:33;;;;;;;21.45;13.90;;;;;;;11.03;100.00;93806.88;5071357;28;20045;-71
2022/10/13 07:48:00;;;;;;;23.17;14.10;;;;;;;11.28;100.00;93808.03;5071589;28;20091;-71
2022/10/13 07:50:27;;;;;;;22.27;13.57;;;;;;;11.47;100.00;93809.00;5071834;28;20048;-71
2022/10/13 07:52:53;;;;;;;21.83;13.90;;;;;;;11.67;100.00;93814.13;5071599;28;20098;-70
2022/10/13 07:55:20;;;;;;;23.17;13.45;;;;;;;11.84;100.00;93822.22;5071364;28;20500;-71
2022/10/13 07:57:47;;;;;;;26.33;14.18;;;;;;;12.04;100.00;93821.41;5071666;28;20094;-71
2022/10/13 08:00:14;;;;;;;29.83;15.25;;;;;;;12.19;100.00;93817.78;5070904;28;20402;-71
2022/10/13 08:02:42;;;;;;;35.42;15.40;;;;;;;12.34;100.00;93805.44;5071156;28;20102;-71
2022/10/13 08:05:09;;;;;;;35.33;15.00;;;;;;;12.41;100.00;93808.75;5071163;28;20048;-71
2022/10/13 08:07:36;;;;;;;37.53;16.40;;;;;;;12.64;100.00;93814.41;5071219;28;20135;-71
2022/10/13 08:10:04;;;;;;;40.78;17.35;;;;;;;12.79;100.00;93808.94;5071307;28;20378;-71
2022/10/13 08:12:31;;;;;;;31.83;16.10;;;;;;;12.71;100.00;93815.16;5071273;28;20057;-71
2022/10/13 08:14:58;;;;;;;30.10;14.82;;;;;;;12.76;100.00;93809.34;5071025;28;20049;-71
2022/10/13 08:17:24;;;;;;;29.88;15.82;;;;;;;12.89;100.00;93814.44;5071282;28;20622;-71
2022/10/13 08:19:53;;;;;;;31.52;14.60;;;;;;;12.99;100.00;93808.81;5070862;28;20110;-71
2022/10/13 08:22:19;;;;;;;36.78;16.30;;;;;;;13.12;100.00;93810.50;5070810;28;20459;-71
2022/10/13 08:24:46;;;;;;;33.15;16.45;;;;;;;13.24;100.00;93808.03;5071084;28;20044;-70
2022/10/13 08:27:19;;;;;;;45.38;18.95;;;;;;;13.45;100.00;93801.72;5071026;28;20044;-70
2022/10/13 08:29:46;;;;;;;45.55;19.95;;;;;;;13.63;100.00;93803.56;5071056;28;20124;-71
2022/10/13 08:32:13;;;;;;;43.60;18.67;;;;;;;13.65;100.00;93808.50;5070681;28;20546;-71
2022/10/13 08:34:39;;;;;;;39.33;17.50;;;;;;;13.64;100.00;93804.34;5070935;28;20040;-71
2022/10/13 08:37:14;;;;;;;42.30;17.73;;;;;;;13.82;100.00;93795.03;5071007;28;20443;-71
2022/10/13 08:39:40;;;;;;;40.72;18.30;;;;;;;13.74;100.00;93767.69;5070432;28;20048;-71
2022/10/13 08:42:14;;;;;;;37.38;18.42;;;;;;;13.85;100.00;93772.13;5070687;28;20447;-71
2022/10/13 08:44:45;;;;;;;33.28;17.65;;;;;;;13.94;100.00;93795.09;5070595;28;20496;-71
2022/10/13 08:47:18;;;;;;;37.80;17.27;;;;;;;13.45;100.00;93790.59;5070663;28;20079;-71
2022/10/13 08:49:45;;;;;;;35.42;17.65;;;;;;;13.45;100.00;93788.81;5069835;28;20474;-71
2022/10/13 08:52:18;;;;;;;36.33;14.40;;;;;;;13.32;100.00;93783.75;5070276;28;20059;-71
2022/10/13 08:54:45;;;;;;;32.17;14.20;;;;;;;13.31;100.00;93784.75;5070736;28;20056;-71
2022/10/13 08:57:12;;;;;;;26.33;13.45;;;;;;;13.45;100.00;93782.84;5070909;28;20118;-71
2022/10/13 08:59:39;;;;;;;29.58;13.95;;;;;;;13.70;100.00;93782.06;5069971;28;20056;-71
2022/10/13 09:02:12;;;;;;;36.33;15.52;;;;;;;14.02;100.00;93766.38;5070475;28;20052;-71
2022/10/13 09:04:41;;;;;;;31.50;14.48;;;;;;;14.31;100.00;93782.16;5070361;28;20055;-71
2022/10/13 09:07:15;;;;;;;31.85;13.45;;;;;;;14.61;100.00;93777.97;5070248;28;20045;-71
2022/10/13 09:09:42;;;;;;;32.97;13.90;;;;;;;14.99;100.00;93776.06;5069861;28;20052;-71
2022/10/13 09:12:11;;;;;;;25.00;11.90;;;;;;;15.30;100.00;93781.94;5070054;28;20041;-71
2022/10/13 09:14:39;;;;;;;26.77;12.27;;;;;;;15.05;99.47;93781.13;5070007;28;20504;-71
2022/10/13 09:17:15;;;;;;;19.95;10.50;;;;;;;14.95;95.57;93778.31;5070022;28;20040;-71
2022/10/13 09:19:43;;;;;;;23.42;11.25;;;;;;;15.12;95.89;93775.06;5067973;28;20048;-71
2022/10/13 09:22:23;;;;;;;18.95;9.90;;;;;;;15.04;95.47;93766.63;5063628;28;20052;-71
2022/10/13 09:25:07;;;;;;;13.25;8.23;;;;;;;15.01;90.06;93764.50;5069942;28;20359;-71
2022/10/13 09:27:42;;;;;;;11.18;7.63;;;;;;;14.95;87.29;93753.22;5052129;28;20049;-71
2022/10/13 09:30:30;;;;;;;10.52;7.70;;;;;;;14.87;86.56;93756.16;5051778;28;20417;-71
2022/10/13 09:33:13;;;;;;;13.32;7.80;;;;;;;14.89;87.43;93761.09;5052357;28;20086;-71
2022/10/13 09:35:42;;;;;;;12.07;7.40;;;;;;;15.23;92.52;93753.59;5067395;28;20052;-71
2022/10/13 09:38:13;;;;;;;10.80;7.93;;;;;;;15.59;94.82;93746.59;5065315;28;20049;-71
2022/10/13 09:40:40;;;;;;;13.05;8.05;;;;;;;15.80;87.71;93752.19;5069668;28;20045;-71
2022/10/13 09:43:27;;;;;;;14.35;8.15;;;;;;;15.95;88.26;93753.53;5069410;28;20071;-71
2022/10/13 09:45:55;;;;;;;15.27;8.98;;;;;;;16.24;90.93;93750.97;5069014;28;20102;-71
2022/10/13 09:48:26;;;;;;;14.13;8.27;;;;;;;16.35;85.49;93750.16;5069340;28;20492;-71
2022/10/13 09:50:55;;;;;;;14.77;7.07;;;;;;;16.34;87.00;93750.38;5069303;28;20095;-72
2022/10/13 09:53:28;;;;;;;16.05;7.70;;;;;;;16.38;86.52;93736.72;5069194;28;20063;-71
2022/10/13 09:56:19;;;;;;;13.85;8.32;;;;;;;16.70;87.39;93741.41;5069159;28;20045;-71
2022/10/13 09:58:51;;;;;;;13.20;7.70;;;;;;;16.93;88.54;93728.50;5065666;28;20548;-71
2022/10/13 10:01:24;;;;;;;11.18;7.38;;;;;;;17.06;87.78;93730.81;5047801;28;20116;-72
2022/10/13 10:03:51;;;;;;;15.02;7.85;;;;;;;17.32;87.80;93722.63;5066601;28;20423;-71
2022/10/13 10:06:18;;;;;;;16.05;7.85;;;;;;;17.64;83.77;93719.41;5068922;28;20044;-71
2022/10/13 10:08:54;;;;;;;12.07;7.50;;;;;;;17.52;78.65;93721.31;5069465;28;20048;-71
2022/10/13 10:11:28;;;;;;;14.68;7.82;;;;;;;17.65;83.00;93714.97;5069028;28;20045;-71
2022/10/13 10:13:55;;;;;;;15.05;8.43;;;;;;;17.77;85.89;93715.63;5065163;28;20102;-71
2022/10/13 10:16:30;;;;;;;10.68;6.72;;;;;;;17.97;83.20;93709.13;5066923;28;20076;-71
2022/10/13 10:19:02;;;;;;;14.48;7.07;;;;;;;18.04;75.68;93714.91;5068480;28;20055;-71
2022/10/13 10:21:35;;;;;;;14.93;6.60;;;;;;;17.54;77.46;93714.84;5069202;28;20045;-72
2022/10/13 10:24:16;;;;;;;11.20;6.65;;;;;;;16.77;76.75;93707.53;5058821;28;20051;-72
2022/10/13 10:26:52;;;;;;;12.88;6.70;;;;;;;16.87;78.56;93696.53;5055463;28;20036;-71
2022/10/13 10:29:37;;;;;;;14.13;7.90;;;;;;;16.79;77.94;93699.50;5069210;28;20082;-71
2022/10/13 10:32:20;;;;;;;16.10;8.27;;;;;;;17.11;83.22;93690.41;5068833;28;20548;-71
2022/10/13 10:34:53;;;;;;;14.55;8.07;;;;;;;17.30;76.48;93693.50;5068889;28;20048;-71
2022/10/13 10:37:35;;;;;;;14.38;8.25;;;;;;;17.16;78.39;93688.66;5068887;28;20098;-71
2022/10/13 10:40:16;;;;;;;14.60;8.13;;;;;;;17.42;84.08;93673.41;5068630;28;20036;-71
2022/10/13 10:42:54;;;;;;;12.90;6.47;;;;;;;17.18;75.27;93675.44;5068862;28;20123;-72
2022/10/13 10:45:24;;;;;;;10.52;6.50;;;;;;;17.03;82.34;93655.25;5068944;28;20045;-71
2022/10/13 10:47:56;;;;;;;9.38;6.53;;;;;;;17.42;78.50;93663.03;5068542;28;20568;-71
2022/10/13 10:50:23;;;;;;;12.13;6.05;;;;;;;17.37;73.24;93660.38;5068565;28;20048;-71
2022/10/13 10:52:57;;;;;;;11.88;6.03;;;;;;;17.73;77.60;93668.56;5068546;28;20048;-71
2022/10/13 10:55:32;;;;;;;12.18;6.55;;;;;;;17.59;77.39;93644.00;5068749;28;20393;-71
2022/10/13 10:58:11;;;;;;;11.40;6.60;;;;;;;18.05;81.70;93651.47;5068567;28;20056;-72
2022/10/13 11:00:44;;;;;;;14.02;7.28;;;;;;;18.29;79.05;93654.59;5062781;28;20132;-72
2022/10/13 11:03:25;;;;;;;14.43;7.75;;;;;;;18.48;78.14;93645.66;5061548;28;20910;-71
2022/10/13 11:06:03;;;;;;;13.45;6.97;;;;;;;18.67;77.79;93651.28;5068342;28;20075;-71
2022/10/13 11:08:39;;;;;;;13.23;6.85;;;;;;;18.83;77.18;93658.16;5068411;28;20165;-72
2022/10/13 11:11:39;;;;;;;10.93;6.45;;;;;;;18.85;69.06;93651.91;5068495;28;20057;-72
2022/10/13 11:14:25;;;;;;;11.43;6.43;;;;;;;18.39;70.22;93640.91;5072275;28;20051;-71
2022/10/13 11:17:20;;;;;;;14.80;7.65;;;;;;;18.35;73.88;93639.84;5070877;28;20504;-71
2022/10/13 11:19:48;;;;;;;10.55;6.68;;;;;;;18.52;71.80;93639.69;5045228;28;20056;-71
2022/10/13 11:22:18;;;;;;;11.50;6.93;;;;;;;18.47;71.07;93639.66;5066300;28;20139;-72
2022/10/13 11:25:12;;;;;;;9.77;6.15;;;;;;;18.59;71.61;93628.28;5069867;28;20536;-72
2022/10/13 11:27:44;;;;;;;15.68;7.55;;;;;;;18.63;75.41;93624.16;5070117;28;20515;-72
2022/10/13 11:30:49;;;;;;;13.52;7.50;;;;;;;18.81;74.02;93613.38;5071440;28;20049;-72